Time;durP1;ratioP1;P1;durP2;ratioP2;P2;SDS_P1;SDS_P2;PMS_P1;PMS_P2;Temp;Humidity;BMP_temperature;BMP_pressure;BME280_temperature;BME280_humidity;BME280_pressure;Samples;Min_cycle;Max_cycle;Signal;HPM_P1;HPM_P2
2023/02/07 00:00:48;;;;;;;36;19.9;;;;;;;-6.2;78.9;101110;;;;
2023/02/07 00:11:48;;;;;;;36;19.9;;;;;;;-6.4;78.9;101120;;;;
2023/02/07 00:21:48;;;;;;;36;19.9;;;;;;;-6.5;78.5;101130;;;;
2023/02/07 00:31:48;;;;;;;32.8;16.9;;;;;;;-6.8;78.4;101130;;;;
2023/02/07 00:42:48;;;;;;;32.8;16.9;;;;;;;-7.2;78.4;101110;;;;
2023/02/07 00:53:48;;;;;;;32.8;16.9;;;;;;;-7.4;78.6;101090;;;;
2023/02/07 01:03:48;;;;;;;34.2;22.4;;;;;;;-7.7;79.3;101090;;;;
2023/02/07 01:13:48;;;;;;;34.2;22.4;;;;;;;-7.9;79.6;101080;;;;
2023/02/07 01:23:48;;;;;;;34.2;22.4;;;;;;;-8;79.7;101080;;;;
2023/02/07 01:34:48;;;;;;;40.5;24.3;;;;;;;-8.1;79.8;101080;;;;
2023/02/07 01:44:48;;;;;;;40.5;24.3;;;;;;;-8.2;80.1;101070;;;;
2023/02/07 01:55:48;;;;;;;40.5;24.3;;;;;;;-8.3;80.1;101050;;;;
2023/02/07 02:05:48;;;;;;;44.1;24.5;;;;;;;-8.4;80.1;101050;;;;
2023/02/07 02:15:48;;;;;;;44.1;24.5;;;;;;;-8.4;80.1;101060;;;;
2023/02/07 02:26:47;;;;;;;44.1;24.5;;;;;;;-8.4;80.2;101080;;;;
2023/02/07 02:36:47;;;;;;;37.5;22.9;;;;;;;-8.5;80.3;101090;;;;
2023/02/07 02:46:47;;;;;;;37.5;22.9;;;;;;;-8.6;80.7;101080;;;;
2023/02/07 02:56:48;;;;;;;46.2;28.9;;;;;;;-8.5;81.6;101080;;;;
2023/02/07 03:06:48;;;;;;;46.2;28.9;;;;;;;-8.5;81.6;101110;;;;
2023/02/07 03:17:48;;;;;;;46.2;28.9;;;;;;;-8.6;82;101100;;;;
2023/02/07 03:27:48;;;;;;;55.9;29.7;;;;;;;-8.4;81.9;101100;;;;
2023/02/07 03:38:48;;;;;;;55.9;29.7;;;;;;;-8.5;82;101100;;;;
2023/02/07 03:49:47;;;;;;;55.9;29.7;;;;;;;-8.3;83.4;101100;;;;
2023/02/07 03:59:47;;;;;;;45;26.4;;;;;;;-7.7;83.7;101110;;;;
2023/02/07 04:10:48;;;;;;;45;26.4;;;;;;;-7.2;83.6;101100;;;;
2023/02/07 04:21:47;;;;;;;45;26.4;;;;;;;-7;82.4;101100;;;;
2023/02/07 04:32:47;;;;;;;39.9;22.8;;;;;;;-6.9;81.7;101100;;;;
2023/02/07 04:43:48;;;;;;;39.9;22.8;;;;;;;-6.6;80.9;101100;;;;
2023/02/07 04:54:47;;;;;;;39.9;22.8;;;;;;;-6.8;80.4;101090;;;;
2023/02/07 05:04:47;;;;;;;25;15.3;;;;;;;-6.7;79.7;101110;;;;
2023/02/07 05:14:47;;;;;;;25;15.3;;;;;;;-6.9;79.4;101100;;;;
2023/02/07 05:25:47;;;;;;;25;15.3;;;;;;;-6.8;80.1;101120;;;;
2023/02/07 05:35:47;;;;;;;30.5;19.2;;;;;;;-6.8;80.1;101130;;;;
2023/02/07 05:46:47;;;;;;;30.5;19.2;;;;;;;-6.8;79.9;101120;;;;
2023/02/07 05:57:48;;;;;;;34.4;18.9;;;;;;;-6.6;80;101110;;;;
2023/02/07 06:07:47;;;;;;;34.4;18.9;;;;;;;-6.5;80.1;101120;;;;
2023/02/07 06:17:48;;;;;;;34.4;18.9;;;;;;;-6.5;79.4;101130;;;;
2023/02/07 06:28:47;;;;;;;43.5;24;;;;;;;-6.2;79.6;101140;;;;
2023/02/07 06:39:47;;;;;;;43.5;24;;;;;;;-6;79.5;101140;;;;
2023/02/07 06:49:47;;;;;;;43.5;24;;;;;;;-5.9;79.4;101150;;;;
2023/02/07 06:59:48;;;;;;;38.2;22.6;;;;;;;-5.7;79.5;101160;;;;
2023/02/07 07:10:47;;;;;;;38.2;22.6;;;;;;;-5.7;79.3;101150;;;;
2023/02/07 07:21:47;;;;;;;38.2;22.6;;;;;;;-5.7;79.6;101150;;;;
2023/02/07 07:31:47;;;;;;;65.4;33.2;;;;;;;-5.6;79.3;101150;;;;
2023/02/07 07:41:47;;;;;;;65.4;33.2;;;;;;;-5.6;79.3;101150;;;;
2023/02/07 07:52:47;;;;;;;65.4;33.2;;;;;;;-5.5;79.3;101140;;;;
2023/02/07 08:02:47;;;;;;;36.6;22.2;;;;;;;-5.1;79.2;101140;;;;
2023/02/07 08:13:47;;;;;;;36.6;22.2;;;;;;;-4.9;78.6;101140;;;;
2023/02/07 08:24:47;;;;;;;36.6;22.2;;;;;;;-4.7;78.4;101140;;;;
2023/02/07 08:34:48;;;;;;;36.5;25.4;;;;;;;-4.3;78.9;101130;;;;
2023/02/07 08:44:47;;;;;;;36.5;25.4;;;;;;;-4.2;78.9;101120;;;;
2023/02/07 08:55:47;;;;;;;45.7;27.2;;;;;;;-4;78.2;101110;;;;
2023/02/07 09:05:47;;;;;;;45.7;27.2;;;;;;;-4;78.6;101100;;;;
2023/02/07 09:16:47;;;;;;;45.7;27.2;;;;;;;-3.8;78.9;101100;;;;
2023/02/07 09:26:47;;;;;;;50;29.7;;;;;;;-3.4;79;101100;;;;
2023/02/07 09:37:47;;;;;;;50;29.7;;;;;;;-3.5;78.5;101100;;;;
2023/02/07 09:48:47;;;;;;;50;29.7;;;;;;;-3.6;78.9;101070;;;;
2023/02/07 09:58:47;;;;;;;64.9;36.9;;;;;;;-3.2;79.2;101080;;;;
2023/02/07 10:08:47;;;;;;;64.9;36.9;;;;;;;-3.2;78.1;101080;;;;
2023/02/07 10:18:47;;;;;;;64.9;36.9;;;;;;;-3.1;78.3;101090;;;;
2023/02/07 10:28:47;;;;;;;60.2;32;;;;;;;-3.1;78.8;101090;;;;
2023/02/07 10:39:47;;;;;;;60.2;32;;;;;;;-3.2;79;101080;;;;
2023/02/07 10:49:47;;;;;;;60.2;32;;;;;;;-2.9;79.2;101080;;;;
2023/02/07 10:59:49;;;;;;;52.9;32.8;;;;;;;-2.8;78.8;101070;;;;
2023/02/07 11:10:47;;;;;;;52.9;32.8;;;;;;;-2.4;78.7;101070;;;;
2023/02/07 11:20:47;;;;;;;52.9;32.8;;;;;;;-2.3;78.1;101060;;;;
2023/02/07 11:31:47;;;;;;;68;39.7;;;;;;;-2.2;78.2;101050;;;;
2023/02/07 11:42:47;;;;;;;68;39.7;;;;;;;-2.1;78.2;101050;;;;
2023/02/07 11:52:47;;;;;;;68;39.7;;;;;;;-1.8;77.9;101040;;;;
2023/02/07 12:02:47;;;;;;;68.2;39.9;;;;;;;-1.1;77;101030;;;;
2023/02/07 12:13:47;;;;;;;68.2;39.9;;;;;;;-1.2;76;101020;;;;
2023/02/07 12:23:47;;;;;;;68.2;39.9;;;;;;;-1.4;75.9;101020;;;;
2023/02/07 12:34:47;;;;;;;74.3;44.2;;;;;;;-1;76;101000;;;;
2023/02/07 12:45:47;;;;;;;74.3;44.2;;;;;;;-1.4;75.7;101000;;;;
2023/02/07 12:56:47;;;;;;;68.3;44.7;;;;;;;-1.1;75.9;101010;;;;
2023/02/07 13:07:47;;;;;;;68.3;44.7;;;;;;;-1;75.9;101020;;;;
2023/02/07 13:18:47;;;;;;;68.3;44.7;;;;;;;-1.2;76.5;101030;;;;
2023/02/07 13:28:47;;;;;;;69.1;36.2;;;;;;;-1.4;76.9;101030;;;;
2023/02/07 13:38:47;;;;;;;69.1;36.2;;;;;;;-1.6;77.6;101030;;;;
2023/02/07 13:49:47;;;;;;;69.1;36.2;;;;;;;-1.5;78;101020;;;;
2023/02/07 13:59:47;;;;;;;55.7;37.9;;;;;;;-1.5;77.9;101010;;;;
2023/02/07 14:10:47;;;;;;;55.7;37.9;;;;;;;-1.6;78.1;101010;;;;
2023/02/07 14:21:47;;;;;;;55.7;37.9;;;;;;;-1.6;77.7;101010;;;;
2023/02/07 14:31:47;;;;;;;70.5;39.1;;;;;;;-1.7;78.3;101020;;;;
2023/02/07 14:42:47;;;;;;;70.5;39.1;;;;;;;-1.8;78.6;101020;;;;
2023/02/07 14:52:47;;;;;;;70.5;39.1;;;;;;;-1.9;79;101030;;;;
2023/02/07 15:02:47;;;;;;;67.4;39.6;;;;;;;-2;79.3;101040;;;;
2023/02/07 15:13:47;;;;;;;67.4;39.6;;;;;;;-2;80.1;101030;;;;
2023/02/07 15:23:47;;;;;;;67.4;39.6;;;;;;;-2.1;80.1;101030;;;;
2023/02/07 15:33:47;;;;;;;72.5;44.9;;;;;;;-2.1;80.6;101030;;;;
2023/02/07 15:43:47;;;;;;;72.5;44.9;;;;;;;-2.1;80.7;101040;;;;
2023/02/07 15:53:47;;;;;;;79.5;46.6;;;;;;;-2.1;80.9;101050;;;;
2023/02/07 16:04:47;;;;;;;79.5;46.6;;;;;;;-2.1;81.1;101060;;;;
2023/02/07 16:14:47;;;;;;;79.5;46.6;;;;;;;-2.1;81;101070;;;;
2023/02/07 16:25:47;;;;;;;63.8;40.6;;;;;;;-2.1;81.1;101080;;;;
2023/02/07 16:36:47;;;;;;;63.8;40.6;;;;;;;-2.1;81.2;101090;;;;
2023/02/07 16:46:47;;;;;;;63.8;40.6;;;;;;;-2;81.2;101090;;;;
2023/02/07 16:57:47;;;;;;;67.9;38;;;;;;;-2;81.1;101090;;;;
2023/02/07 17:07:47;;;;;;;67.9;38;;;;;;;-2;81.3;101100;;;;
2023/02/07 17:18:47;;;;;;;67.9;38;;;;;;;-2.1;81.2;101100;;;;
2023/02/07 17:28:47;;;;;;;66.9;41.2;;;;;;;-2.1;81.3;101110;;;;
2023/02/07 17:39:47;;;;;;;66.9;41.2;;;;;;;-2;81.5;101110;;;;
2023/02/07 17:49:47;;;;;;;66.9;41.2;;;;;;;-2;81.5;101120;;;;
2023/02/07 17:59:47;;;;;;;75.9;44.3;;;;;;;-2.1;81.7;101120;;;;
2023/02/07 18:10:47;;;;;;;75.9;44.3;;;;;;;-2.1;81.9;101130;;;;
2023/02/07 18:21:48;;;;;;;75.9;44.3;;;;;;;-2;82;101130;;;;
2023/02/07 18:32:47;;;;;;;84.8;49.7;;;;;;;-2;81.9;101150;;;;
2023/02/07 18:43:47;;;;;;;84.8;49.7;;;;;;;-2;82;101160;;;;
2023/02/07 18:54:47;;;;;;;82.4;47.4;;;;;;;-1.9;81.9;101160;;;;
2023/02/07 19:04:47;;;;;;;82.4;47.4;;;;;;;-1.9;81.8;101150;;;;
2023/02/07 19:14:47;;;;;;;82.4;47.4;;;;;;;-1.8;81.8;101160;;;;
2023/02/07 19:25:47;;;;;;;77.1;44.4;;;;;;;-1.8;81.7;101170;;;;
2023/02/07 19:36:47;;;;;;;77.1;44.4;;;;;;;-1.8;81.6;101180;;;;
2023/02/07 19:47:46;;;;;;;77.1;44.4;;;;;;;-1.8;81.6;101190;;;;
2023/02/07 19:57:46;;;;;;;84.3;47.1;;;;;;;-1.8;81.6;101190;;;;
2023/02/07 20:08:46;;;;;;;84.3;47.1;;;;;;;-1.8;81.6;101190;;;;
2023/02/07 20:18:46;;;;;;;84.3;47.1;;;;;;;-1.9;81.7;101190;;;;
2023/02/07 20:28:48;;;;;;;82.8;48.4;;;;;;;-2;82.1;101180;;;;
2023/02/07 20:38:47;;;;;;;82.8;48.4;;;;;;;-2;82.3;101200;;;;
2023/02/07 20:49:47;;;;;;;82.8;48.4;;;;;;;-2;82.3;101190;;;;
2023/02/07 20:59:47;;;;;;;97.3;51.7;;;;;;;-2.1;82.6;101200;;;;
2023/02/07 21:10:46;;;;;;;97.3;51.7;;;;;;;-2;82.5;101190;;;;
2023/02/07 21:20:46;;;;;;;97.3;51.7;;;;;;;-2.1;82.8;101200;;;;
2023/02/07 21:30:46;;;;;;;85.2;45.8;;;;;;;-2;82.6;101220;;;;
2023/02/07 21:41:46;;;;;;;85.2;45.8;;;;;;;-2.1;82.6;101210;;;;
2023/02/07 21:51:47;;;;;;;85.2;45.8;;;;;;;-2.1;82.6;101220;;;;
2023/02/07 22:02:46;;;;;;;88.6;49.8;;;;;;;-2.1;82.9;101220;;;;
2023/02/07 22:12:46;;;;;;;88.6;49.8;;;;;;;-2;82.8;101220;;;;
2023/02/07 22:22:46;;;;;;;84.7;49;;;;;;;-1.9;82.7;101220;;;;
2023/02/07 22:32:46;;;;;;;84.7;49;;;;;;;-1.8;82.8;101220;;;;
2023/02/07 22:43:46;;;;;;;84.7;49;;;;;;;-1.9;82.6;101220;;;;
2023/02/07 22:53:46;;;;;;;82.3;49.6;;;;;;;-2;83;101210;;;;
2023/02/07 23:03:46;;;;;;;82.3;49.6;;;;;;;-2;83.2;101220;;;;
2023/02/07 23:13:46;;;;;;;82.3;49.6;;;;;;;-2;83.4;101210;;;;
2023/02/07 23:24:46;;;;;;;99.3;52.7;;;;;;;-2;83.5;101220;;;;
2023/02/07 23:35:46;;;;;;;99.3;52.7;;;;;;;-2;83.4;101200;;;;
2023/02/07 23:45:46;;;;;;;99.3;52.7;;;;;;;-2;83.3;101210;;;;
2023/02/07 23:56:46;;;;;;;73.7;45.9;;;;;;;-1.9;83.3;101210;;;;
